الصفحة الرئيسية
METAR-TAF:

METAR-TAF

مطار :

Mataram, إندونيسيا

دائرة عرض: 08-45-29S, خط طول: 116-16-35E, ارتفاع: 97 متر

مراقبة الطقس الحالي

تاريخ ووقت الإصدار 13 دقيقة قبل الساعة 19:30UTC
رياح هادئة
درجة الحرارة 24°درجة مئوية
الرطوبة 100%
ضغط 1012 hPa
الرؤية: 7000 متر
غيوم متفرقة على ارتفاع 1600 قدم

METAR: WADL 171930Z 00000KT 7000 SCT016 24/24 Q1012 NOSIG

زمن: 02:43 (19:43 UTC)

توقعات

تاريخ ووقت الإصدار 2ساعات و 43 دقيقة قبل الساعة 17:00UTC
التوقعات صالحة من17 الساعة 18 UTC إلى 18 الساعة 18 UTC
ريح 5 عقدة من الشرق/الجنوب الشرقي
الرؤية: 7000 متر
غيوم متفرقة على ارتفاع 1600 قدم

TAF: WADL 171700Z 1718/1818 12005KT 7000 SCT016

أرصاد الطقس والتوقعات من أكثر من 4000 مطار (تقارير الطقس للمطار METAR والتنبؤ بالطقس بالمطارTAF).

المحطات المتاحة هي النقط الصفراء والحمراء على الخريطة.

حرك المؤشر فوق النقطة لمعرفة اسم المحطة.

ثم انقر لمعرفة أرصاد وتوقعات الطقس.

لتغيير الخارطة: اضغط على الأزرار الخضراء مع رمز الصليب الأسود للتكبير. على الزر الأخضر مع شرطة للتصغير، أو على الأسهم الخضراء للخرائط المجاورة.


METAR-TAF: